Holland, New York
Current Conditions -  °F | °C
As of 1:36 PM on Sunday 25 Jan 2015 (Local Time) from KBUF Reporting Station
Broken Clouds Broken Clouds  
Wind Chill: -13°   Ceiling: 25000
Heat Index: -8°   Visibility: 10mi
Dew Point: -13°   Wind: 7mph
Humidity: 65%   Direction: 50°NE
Pressure: 29.91"   Gusts: NA
Location:  42.64°N, 78.54°W
Report Text: KBUF 251836Z 05006KT 10SM SCT019 BKN250 M08/M13 A2991 RMK AO2 SNB05E30 P0000 T10781133
Loading
Personal Weather Stations






























Interactive Weather Map New forecast layout! Learn more

10-Day Weather Forecast

Advertisements
Track Severe Weather on mobile